FLT555 VNKT-VNLK
Flight info
| Callsign | FLT555 |
|---|---|
| Flight time | 0h 32m |
| Altitude | 150 |
| Route | KIMTI |
| Aircraft | C408/L-VGD/C |
Departure
| Time | 2026-04-17 04:01 |
|---|---|
| Airport | Tribhuvan International Airport (VNKT) |
Arrival
| Time | 2026-04-17 04:34 |
|---|---|
| Airport | Tenzing-Hillary Airport (VNLK) |
| Time | Latitude | Longitude | Altitude | Speed | Heading |
|---|---|---|---|---|---|
| 2026-04-17 03:29 | 27.70553 | 85.35996 | 4382 ft | 0 kts | 245° |
| 2026-04-17 03:52 | 27.70550 | 85.35991 | 4384 ft | 2 kts | 240° |
| 2026-04-17 03:53 | 27.70530 | 85.35977 | 4380 ft | 6 kts | 165° |
| 2026-04-17 03:53 | 27.70498 | 85.36015 | 4373 ft | 9 kts | 80° |
| 2026-04-17 03:53 | 27.70497 | 85.36071 | 4382 ft | 0 kts | 103° |
| 2026-04-17 03:54 | 27.70492 | 85.36111 | 4384 ft | 8 kts | 82° |
| 2026-04-17 03:54 | 27.70502 | 85.36150 | 4385 ft | 0 kts | 69° |
| 2026-04-17 03:55 | 27.70504 | 85.36155 | 4385 ft | 5 kts | 69° |
| 2026-04-17 03:56 | 27.70556 | 85.36212 | 4387 ft | 7 kts | 34° |
| 2026-04-17 03:56 | 27.70575 | 85.36235 | 4388 ft | 0 kts | 69° |
| 2026-04-17 03:59 | 27.70596 | 85.36302 | 4390 ft | 16 kts | 82° |
| 2026-04-17 03:59 | 27.70569 | 85.36328 | 4390 ft | 8 kts | 206° |
| 2026-04-17 03:59 | 27.70541 | 85.36315 | 4389 ft | 0 kts | 201° |
| 2026-04-17 04:00 | 27.70524 | 85.36307 | 4389 ft | 7 kts | 201° |
| 2026-04-17 04:00 | 27.70453 | 85.36275 | 4387 ft | 18 kts | 202° |
| 2026-04-17 04:00 | 27.70123 | 85.36128 | 4362 ft | 82 kts | 201° |
| 2026-04-17 04:01 | 27.69436 | 85.35810 | 4372 ft | 127 kts | 202° |
| 2026-04-17 04:01 | 27.68533 | 85.35431 | 4590 ft | 144 kts | 199° |
| 2026-04-17 04:01 | 27.67604 | 85.35002 | 4999 ft | 141 kts | 204° |
| 2026-04-17 04:01 | 27.66800 | 85.34430 | 5482 ft | 136 kts | 233° |
| 2026-04-17 04:02 | 27.66501 | 85.33461 | 5941 ft | 134 kts | 269° |
| 2026-04-17 04:02 | 27.66643 | 85.32435 | 6398 ft | 132 kts | 278° |
| 2026-04-17 04:02 | 27.66780 | 85.31406 | 6820 ft | 133 kts | 278° |
| 2026-04-17 04:02 | 27.66927 | 85.30370 | 7213 ft | 134 kts | 278° |
| 2026-04-17 04:03 | 27.67078 | 85.29337 | 7639 ft | 133 kts | 281° |
| 2026-04-17 04:03 | 27.67508 | 85.28427 | 8046 ft | 132 kts | 310° |
| 2026-04-17 04:03 | 27.68257 | 85.27825 | 8469 ft | 133 kts | 336° |
| 2026-04-17 04:03 | 27.69163 | 85.27678 | 8891 ft | 135 kts | 3° |
| 2026-04-17 04:04 | 27.70056 | 85.27995 | 9329 ft | 134 kts | 24° |
| 2026-04-17 04:04 | 27.70878 | 85.28478 | 9774 ft | 133 kts | 32° |
| 2026-04-17 04:04 | 27.71624 | 85.29084 | 10203 ft | 131 kts | 40° |
| 2026-04-17 04:04 | 27.72279 | 85.29790 | 10604 ft | 129 kts | 47° |
| 2026-04-17 04:05 | 27.72841 | 85.30585 | 10979 ft | 130 kts | 54° |
| 2026-04-17 04:05 | 27.73311 | 85.31480 | 11355 ft | 134 kts | 62° |
| 2026-04-17 04:05 | 27.73671 | 85.32448 | 11717 ft | 137 kts | 70° |
| 2026-04-17 04:05 | 27.73912 | 85.33500 | 12086 ft | 140 kts | 79° |
| 2026-04-17 04:06 | 27.74018 | 85.34601 | 12459 ft | 143 kts | 87° |
| 2026-04-17 04:06 | 27.73977 | 85.35740 | 12837 ft | 147 kts | 96° |
| 2026-04-17 04:06 | 27.73776 | 85.36887 | 13224 ft | 151 kts | 105° |
| 2026-04-17 04:06 | 27.73411 | 85.38008 | 13611 ft | 153 kts | 114° |
| 2026-04-17 04:07 | 27.72887 | 85.39062 | 13992 ft | 155 kts | 124° |
| 2026-04-17 04:07 | 27.72212 | 85.40016 | 14337 ft | 156 kts | 134° |
| 2026-04-17 04:07 | 27.71403 | 85.40840 | 14674 ft | 157 kts | 144° |
| 2026-04-17 04:07 | 27.70493 | 85.41499 | 15018 ft | 158 kts | 154° |
| 2026-04-17 04:08 | 27.69436 | 85.42013 | 15133 ft | 177 kts | 167° |
| 2026-04-17 04:08 | 27.68177 | 85.42327 | 15157 ft | 192 kts | 177° |
| 2026-04-17 04:08 | 27.66830 | 85.42722 | 15159 ft | 210 kts | 156° |
| 2026-04-17 04:08 | 27.65643 | 85.43745 | 15152 ft | 221 kts | 131° |
| 2026-04-17 04:09 | 27.64894 | 85.45261 | 15146 ft | 224 kts | 107° |
| 2026-04-17 04:09 | 27.64488 | 85.46964 | 15150 ft | 226 kts | 104° |
| 2026-04-17 04:09 | 27.64089 | 85.48685 | 15141 ft | 227 kts | 104° |
| 2026-04-17 04:09 | 27.63682 | 85.50413 | 15143 ft | 228 kts | 104° |
| 2026-04-17 04:10 | 27.63272 | 85.52143 | 15142 ft | 228 kts | 104° |
| 2026-04-17 04:10 | 27.62861 | 85.53874 | 15140 ft | 229 kts | 104° |
| 2026-04-17 04:10 | 27.62450 | 85.55614 | 15136 ft | 228 kts | 104° |
| 2026-04-17 04:10 | 27.62039 | 85.57349 | 15136 ft | 230 kts | 104° |
| 2026-04-17 04:11 | 27.61623 | 85.59094 | 15134 ft | 229 kts | 104° |
| 2026-04-17 04:11 | 27.61217 | 85.60802 | 15130 ft | 228 kts | 104° |
| 2026-04-17 04:11 | 27.60862 | 85.62543 | 15123 ft | 227 kts | 94° |
| 2026-04-17 04:11 | 27.60772 | 85.64319 | 15122 ft | 227 kts | 92° |
| 2026-04-17 04:12 | 27.60671 | 85.66096 | 15123 ft | 227 kts | 92° |
| 2026-04-17 04:12 | 27.60566 | 85.67875 | 15122 ft | 228 kts | 92° |
| 2026-04-17 04:12 | 27.60462 | 85.69656 | 15122 ft | 227 kts | 92° |
| 2026-04-17 04:12 | 27.60354 | 85.71437 | 15122 ft | 227 kts | 94° |
| 2026-04-17 04:13 | 27.60044 | 85.73179 | 15129 ft | 227 kts | 102° |
| 2026-04-17 04:13 | 27.59702 | 85.74923 | 15128 ft | 228 kts | 101° |
| 2026-04-17 04:13 | 27.59368 | 85.76672 | 15130 ft | 228 kts | 101° |
| 2026-04-17 04:13 | 27.59033 | 85.78426 | 15132 ft | 229 kts | 101° |
| 2026-04-17 04:14 | 27.58700 | 85.80161 | 15130 ft | 229 kts | 101° |
| 2026-04-17 04:14 | 27.58363 | 85.81913 | 15133 ft | 229 kts | 101° |
| 2026-04-17 04:14 | 27.58027 | 85.83669 | 15132 ft | 229 kts | 101° |
| 2026-04-17 04:14 | 27.57688 | 85.85425 | 15133 ft | 229 kts | 101° |
| 2026-04-17 04:15 | 27.57350 | 85.87184 | 15135 ft | 230 kts | 101° |
| 2026-04-17 04:15 | 27.57011 | 85.88945 | 15149 ft | 229 kts | 101° |
| 2026-04-17 04:15 | 27.56673 | 85.90700 | 15154 ft | 229 kts | 101° |
| 2026-04-17 04:15 | 27.56334 | 85.92458 | 15154 ft | 230 kts | 101° |
| 2026-04-17 04:16 | 27.55994 | 85.94218 | 15158 ft | 230 kts | 101° |
| 2026-04-17 04:16 | 27.55654 | 85.95976 | 15169 ft | 229 kts | 101° |
| 2026-04-17 04:16 | 27.55316 | 85.97727 | 15175 ft | 227 kts | 101° |
| 2026-04-17 04:16 | 27.54983 | 85.99449 | 15172 ft | 228 kts | 101° |
| 2026-04-17 04:17 | 27.54647 | 86.01192 | 15172 ft | 227 kts | 101° |
| 2026-04-17 04:17 | 27.54308 | 86.02933 | 15174 ft | 228 kts | 101° |
| 2026-04-17 04:17 | 27.53970 | 86.04678 | 15168 ft | 227 kts | 101° |
| 2026-04-17 04:17 | 27.53634 | 86.06415 | 15140 ft | 226 kts | 101° |
| 2026-04-17 04:18 | 27.53298 | 86.08145 | 15143 ft | 226 kts | 101° |
| 2026-04-17 04:18 | 27.52960 | 86.09883 | 15147 ft | 228 kts | 101° |
| 2026-04-17 04:18 | 27.52621 | 86.11630 | 15150 ft | 229 kts | 101° |
| 2026-04-17 04:18 | 27.52280 | 86.13385 | 15152 ft | 229 kts | 101° |
| 2026-04-17 04:19 | 27.51938 | 86.15141 | 15146 ft | 228 kts | 101° |
| 2026-04-17 04:19 | 27.51598 | 86.16887 | 15148 ft | 229 kts | 101° |
| 2026-04-17 04:19 | 27.51256 | 86.18639 | 15176 ft | 227 kts | 102° |
| 2026-04-17 04:19 | 27.50918 | 86.20374 | 15177 ft | 226 kts | 102° |
| 2026-04-17 04:20 | 27.50580 | 86.22104 | 15179 ft | 226 kts | 102° |
| 2026-04-17 04:20 | 27.50247 | 86.23812 | 15175 ft | 226 kts | 102° |
| 2026-04-17 04:20 | 27.49909 | 86.25534 | 15174 ft | 225 kts | 102° |
| 2026-04-17 04:20 | 27.49558 | 86.27246 | 15170 ft | 223 kts | 104° |
| 2026-04-17 04:21 | 27.49161 | 86.28936 | 15174 ft | 223 kts | 103° |
| 2026-04-17 04:21 | 27.48792 | 86.30637 | 15171 ft | 224 kts | 103° |
| 2026-04-17 04:21 | 27.48413 | 86.32343 | 15171 ft | 225 kts | 104° |
| 2026-04-17 04:21 | 27.48023 | 86.34052 | 15195 ft | 226 kts | 104° |
| 2026-04-17 04:22 | 27.47634 | 86.35765 | 15196 ft | 226 kts | 103° |
| 2026-04-17 04:22 | 27.47251 | 86.37458 | 15194 ft | 225 kts | 104° |
| 2026-04-17 04:22 | 27.46863 | 86.39169 | 15192 ft | 225 kts | 104° |
| 2026-04-17 04:22 | 27.46475 | 86.40879 | 15193 ft | 225 kts | 103° |
| 2026-04-17 04:23 | 27.46088 | 86.42585 | 15187 ft | 224 kts | 104° |
| 2026-04-17 04:23 | 27.45703 | 86.44282 | 15196 ft | 224 kts | 104° |
| 2026-04-17 04:23 | 27.45314 | 86.45991 | 15194 ft | 225 kts | 104° |
| 2026-04-17 04:23 | 27.44927 | 86.47693 | 15194 ft | 224 kts | 103° |
| 2026-04-17 04:24 | 27.44540 | 86.49395 | 15215 ft | 223 kts | 104° |
| 2026-04-17 04:24 | 27.44177 | 86.50984 | 15068 ft | 201 kts | 104° |
| 2026-04-17 04:24 | 27.43838 | 86.52476 | 14881 ft | 194 kts | 103° |
| 2026-04-17 04:24 | 27.43509 | 86.53925 | 14702 ft | 192 kts | 103° |
| 2026-04-17 04:25 | 27.43179 | 86.55371 | 14493 ft | 190 kts | 103° |
| 2026-04-17 04:25 | 27.42845 | 86.56836 | 14327 ft | 194 kts | 103° |
| 2026-04-17 04:25 | 27.42513 | 86.58284 | 14088 ft | 180 kts | 103° |
| 2026-04-17 04:25 | 27.42212 | 86.59599 | 13815 ft | 173 kts | 102° |
| 2026-04-17 04:26 | 27.41916 | 86.60895 | 13534 ft | 169 kts | 102° |
| 2026-04-17 04:26 | 27.41639 | 86.62165 | 13250 ft | 165 kts | 97° |
| 2026-04-17 04:26 | 27.41722 | 86.63422 | 12994 ft | 160 kts | 69° |
| 2026-04-17 04:26 | 27.42247 | 86.64491 | 12756 ft | 154 kts | 43° |
| 2026-04-17 04:27 | 27.43075 | 86.65198 | 12530 ft | 147 kts | 20° |
| 2026-04-17 04:27 | 27.44046 | 86.65526 | 12368 ft | 147 kts | 11° |
| 2026-04-17 04:27 | 27.45049 | 86.65826 | 12164 ft | 149 kts | 13° |
| 2026-04-17 04:27 | 27.46051 | 86.66119 | 11966 ft | 149 kts | 13° |
| 2026-04-17 04:28 | 27.47051 | 86.66411 | 11779 ft | 149 kts | 13° |
| 2026-04-17 04:28 | 27.48054 | 86.66641 | 11603 ft | 149 kts | 7° |
| 2026-04-17 04:28 | 27.49082 | 86.66829 | 11406 ft | 148 kts | 7° |
| 2026-04-17 04:28 | 27.50097 | 86.67003 | 11220 ft | 148 kts | 7° |
| 2026-04-17 04:29 | 27.51120 | 86.67188 | 11034 ft | 148 kts | 7° |
| 2026-04-17 04:29 | 27.52139 | 86.67370 | 10837 ft | 148 kts | 7° |
| 2026-04-17 04:29 | 27.53154 | 86.67557 | 10649 ft | 148 kts | 7° |
| 2026-04-17 04:29 | 27.54152 | 86.67738 | 10418 ft | 141 kts | 7° |
| 2026-04-17 04:30 | 27.55084 | 86.67889 | 10341 ft | 134 kts | 7° |
| 2026-04-17 04:30 | 27.55998 | 86.68055 | 10355 ft | 133 kts | 7° |
| 2026-04-17 04:30 | 27.56910 | 86.68209 | 10360 ft | 134 kts | 7° |
| 2026-04-17 04:30 | 27.57839 | 86.68366 | 10359 ft | 136 kts | 7° |
| 2026-04-17 04:31 | 27.58777 | 86.68529 | 10365 ft | 136 kts | 7° |
| 2026-04-17 04:31 | 27.59717 | 86.68690 | 10363 ft | 136 kts | 7° |
| 2026-04-17 04:31 | 27.60657 | 86.68855 | 10364 ft | 137 kts | 7° |
| 2026-04-17 04:31 | 27.61602 | 86.69017 | 10374 ft | 136 kts | 7° |
| 2026-04-17 04:32 | 27.62534 | 86.69172 | 10375 ft | 134 kts | 7° |
| 2026-04-17 04:32 | 27.63459 | 86.69328 | 10365 ft | 131 kts | 7° |
| 2026-04-17 04:32 | 27.64329 | 86.69474 | 10334 ft | 124 kts | 7° |
| 2026-04-17 04:32 | 27.65182 | 86.69616 | 10308 ft | 123 kts | 7° |
| 2026-04-17 04:33 | 27.66034 | 86.69793 | 10295 ft | 132 kts | 17° |
| 2026-04-17 04:33 | 27.66933 | 86.70262 | 10001 ft | 147 kts | 28° |
| 2026-04-17 04:33 | 27.67661 | 86.70968 | 9750 ft | 130 kts | 53° |
| 2026-04-17 04:33 | 27.68129 | 86.71847 | 9388 ft | 127 kts | 62° |
| 2026-04-17 04:34 | 27.68762 | 86.73103 | 9429 ft | 21 kts | 60° |
| 2026-04-17 04:34 | 27.68783 | 86.73163 | 9436 ft | 6 kts | 92° |
| 2026-04-17 04:34 | 27.68778 | 86.73171 | 9437 ft | 5 kts | 150° |
| 2026-04-17 04:35 | 27.68772 | 86.73173 | 9438 ft | 0 kts | 173° |
| 2026-04-17 04:35 | 27.68750 | 86.73177 | 9435 ft | 7 kts | 198° |
| 2026-04-17 04:35 | 27.68741 | 86.73165 | 9435 ft | 0 kts | 268° |